sensor_id;sensor_type;location;lat;lon;timestamp;P1;durP1;ratioP1;P2;durP2;ratioP2
63801;SDS011;49949;43.060;25.624;2023-04-24T00:02:05;9.18;;;4.22;;
63801;SDS011;49949;43.060;25.624;2023-04-24T00:04:31;6.07;;;3.80;;
63801;SDS011;49949;43.060;25.624;2023-04-24T00:06:58;15.32;;;4.65;;
63801;SDS011;49949;43.060;25.624;2023-04-24T00:09:25;9.23;;;4.03;;
63801;SDS011;49949;43.060;25.624;2023-04-24T00:11:51;11.70;;;4.28;;
63801;SDS011;49949;43.060;25.624;2023-04-24T00:14:18;7.88;;;4.22;;
63801;SDS011;49949;43.060;25.624;2023-04-24T00:16:44;10.38;;;3.85;;
63801;SDS011;49949;43.060;25.624;2023-04-24T00:19:10;8.23;;;4.25;;
63801;SDS011;49949;43.060;25.624;2023-04-24T00:21:36;8.70;;;4.28;;
63801;SDS011;49949;43.060;25.624;2023-04-24T00:24:02;10.75;;;3.97;;
63801;SDS011;49949;43.060;25.624;2023-04-24T00:26:28;7.72;;;4.32;;
63801;SDS011;49949;43.060;25.624;2023-04-24T00:28:54;4.82;;;3.60;;
63801;SDS011;49949;43.060;25.624;2023-04-24T00:31:20;7.03;;;4.30;;
63801;SDS011;49949;43.060;25.624;2023-04-24T00:33:45;12.02;;;4.15;;
63801;SDS011;49949;43.060;25.624;2023-04-24T00:36:11;13.32;;;4.65;;
63801;SDS011;49949;43.060;25.624;2023-04-24T00:38:37;5.97;;;3.90;;
63801;SDS011;49949;43.060;25.624;2023-04-24T00:41:02;7.55;;;4.22;;
63801;SDS011;49949;43.060;25.624;2023-04-24T00:43:28;7.88;;;4.30;;
63801;SDS011;49949;43.060;25.624;2023-04-24T00:45:54;28.05;;;12.25;;
63801;SDS011;49949;43.060;25.624;2023-04-24T00:48:20;9.77;;;4.32;;
63801;SDS011;49949;43.060;25.624;2023-04-24T00:50:46;10.25;;;4.57;;
63801;SDS011;49949;43.060;25.624;2023-04-24T00:53:12;8.25;;;4.10;;
63801;SDS011;49949;43.060;25.624;2023-04-24T00:55:37;12.35;;;4.60;;
63801;SDS011;49949;43.060;25.624;2023-04-24T00:58:03;14.85;;;4.78;;
63801;SDS011;49949;43.060;25.624;2023-04-24T01:00:29;9.20;;;4.82;;
63801;SDS011;49949;43.060;25.624;2023-04-24T01:02:56;7.28;;;4.95;;
63801;SDS011;49949;43.060;25.624;2023-04-24T01:05:24;9.85;;;4.93;;
63801;SDS011;49949;43.060;25.624;2023-04-24T01:07:50;11.10;;;4.88;;
63801;SDS011;49949;43.060;25.624;2023-04-24T01:10:16;11.10;;;5.45;;
63801;SDS011;49949;43.060;25.624;2023-04-24T01:12:42;8.45;;;5.57;;
63801;SDS011;49949;43.060;25.624;2023-04-24T01:15:08;9.57;;;5.05;;
63801;SDS011;49949;43.060;25.624;2023-04-24T01:17:35;11.45;;;5.20;;
63801;SDS011;49949;43.060;25.624;2023-04-24T01:20:01;10.30;;;5.75;;
63801;SDS011;49949;43.060;25.624;2023-04-24T01:22:30;13.57;;;5.68;;
63801;SDS011;49949;43.060;25.624;2023-04-24T01:24:57;16.65;;;5.60;;
63801;SDS011;49949;43.060;25.624;2023-04-24T01:27:23;11.55;;;5.32;;
63801;SDS011;49949;43.060;25.624;2023-04-24T01:29:48;11.98;;;4.75;;
63801;SDS011;49949;43.060;25.624;2023-04-24T01:32:16;9.10;;;4.88;;
63801;SDS011;49949;43.060;25.624;2023-04-24T01:34:43;12.23;;;5.32;;
63801;SDS011;49949;43.060;25.624;2023-04-24T01:37:10;13.68;;;5.47;;
63801;SDS011;49949;43.060;25.624;2023-04-24T01:39:35;7.53;;;4.50;;
63801;SDS011;49949;43.060;25.624;2023-04-24T01:42:01;6.85;;;4.10;;
63801;SDS011;49949;43.060;25.624;2023-04-24T01:44:27;8.57;;;4.30;;
63801;SDS011;49949;43.060;25.624;2023-04-24T01:46:54;8.48;;;4.32;;
63801;SDS011;49949;43.060;25.624;2023-04-24T01:49:20;6.43;;;4.18;;
63801;SDS011;49949;43.060;25.624;2023-04-24T01:51:46;12.27;;;4.93;;
63801;SDS011;49949;43.060;25.624;2023-04-24T01:54:12;13.95;;;4.95;;
63801;SDS011;49949;43.060;25.624;2023-04-24T01:56:40;11.50;;;4.63;;
63801;SDS011;49949;43.060;25.624;2023-04-24T01:59:07;9.65;;;4.88;;
63801;SDS011;49949;43.060;25.624;2023-04-24T02:01:35;8.18;;;4.10;;
63801;SDS011;49949;43.060;25.624;2023-04-24T02:04:02;10.68;;;4.63;;
63801;SDS011;49949;43.060;25.624;2023-04-24T02:06:28;8.38;;;4.22;;
63801;SDS011;49949;43.060;25.624;2023-04-24T02:08:53;9.80;;;4.82;;
63801;SDS011;49949;43.060;25.624;2023-04-24T02:11:19;8.23;;;4.95;;
63801;SDS011;49949;43.060;25.624;2023-04-24T02:13:45;40.05;;;19.15;;
63801;SDS011;49949;43.060;25.624;2023-04-24T02:16:10;13.48;;;4.40;;
63801;SDS011;49949;43.060;25.624;2023-04-24T02:18:36;11.43;;;5.07;;
63801;SDS011;49949;43.060;25.624;2023-04-24T02:21:02;10.77;;;5.22;;
63801;SDS011;49949;43.060;25.624;2023-04-24T02:23:27;13.60;;;4.70;;
63801;SDS011;49949;43.060;25.624;2023-04-24T02:25:53;12.65;;;5.35;;
63801;SDS011;49949;43.060;25.624;2023-04-24T02:28:19;11.27;;;5.20;;
63801;SDS011;49949;43.060;25.624;2023-04-24T02:30:45;7.88;;;4.80;;
63801;SDS011;49949;43.060;25.624;2023-04-24T02:33:11;10.05;;;4.18;;
63801;SDS011;49949;43.060;25.624;2023-04-24T02:35:36;7.30;;;5.20;;
63801;SDS011;49949;43.060;25.624;2023-04-24T02:38:02;7.75;;;4.97;;
63801;SDS011;49949;43.060;25.624;2023-04-24T02:40:29;11.43;;;5.22;;
63801;SDS011;49949;43.060;25.624;2023-04-24T02:42:55;11.10;;;5.40;;
63801;SDS011;49949;43.060;25.624;2023-04-24T02:45:20;9.82;;;5.40;;
63801;SDS011;49949;43.060;25.624;2023-04-24T02:47:46;11.15;;;4.63;;
63801;SDS011;49949;43.060;25.624;2023-04-24T02:50:12;11.10;;;5.10;;
63801;SDS011;49949;43.060;25.624;2023-04-24T02:52:37;11.50;;;5.43;;
63801;SDS011;49949;43.060;25.624;2023-04-24T02:55:03;8.82;;;5.97;;
63801;SDS011;49949;43.060;25.624;2023-04-24T02:57:30;12.82;;;5.75;;
63801;SDS011;49949;43.060;25.624;2023-04-24T02:59:55;13.15;;;6.13;;
63801;SDS011;49949;43.060;25.624;2023-04-24T03:02:21;15.15;;;7.13;;
63801;SDS011;49949;43.060;25.624;2023-04-24T03:04:47;11.85;;;7.55;;
63801;SDS011;49949;43.060;25.624;2023-04-24T03:07:15;13.13;;;6.47;;
63801;SDS011;49949;43.060;25.624;2023-04-24T03:09:41;20.73;;;6.50;;
63801;SDS011;49949;43.060;25.624;2023-04-24T03:12:07;22.67;;;6.70;;
63801;SDS011;49949;43.060;25.624;2023-04-24T03:14:32;19.05;;;6.80;;
63801;SDS011;49949;43.060;25.624;2023-04-24T03:16:58;20.48;;;7.43;;
63801;SDS011;49949;43.060;25.624;2023-04-24T03:19:24;25.75;;;13.00;;
63801;SDS011;49949;43.060;25.624;2023-04-24T03:21:50;14.95;;;6.75;;
63801;SDS011;49949;43.060;25.624;2023-04-24T03:24:16;14.00;;;6.95;;
63801;SDS011;49949;43.060;25.624;2023-04-24T03:26:41;32.72;;;7.50;;
63801;SDS011;49949;43.060;25.624;2023-04-24T03:29:10;22.60;;;6.97;;
63801;SDS011;49949;43.060;25.624;2023-04-24T03:31:35;19.20;;;6.53;;
63801;SDS011;49949;43.060;25.624;2023-04-24T03:34:01;16.75;;;7.18;;
63801;SDS011;49949;43.060;25.624;2023-04-24T03:36:27;18.15;;;6.47;;
63801;SDS011;49949;43.060;25.624;2023-04-24T03:38:52;17.05;;;6.88;;
63801;SDS011;49949;43.060;25.624;2023-04-24T03:41:18;19.73;;;6.78;;
63801;SDS011;49949;43.060;25.624;2023-04-24T03:43:44;23.00;;;6.47;;
63801;SDS011;49949;43.060;25.624;2023-04-24T03:46:10;28.92;;;6.25;;
63801;SDS011;49949;43.060;25.624;2023-04-24T03:48:35;31.95;;;6.95;;
63801;SDS011;49949;43.060;25.624;2023-04-24T03:51:01;35.85;;;6.82;;
63801;SDS011;49949;43.060;25.624;2023-04-24T03:53:27;15.52;;;7.30;;
63801;SDS011;49949;43.060;25.624;2023-04-24T03:55:53;22.88;;;7.63;;
63801;SDS011;49949;43.060;25.624;2023-04-24T03:58:18;14.75;;;7.25;;
63801;SDS011;49949;43.060;25.624;2023-04-24T04:00:44;15.90;;;6.53;;
63801;SDS011;49949;43.060;25.624;2023-04-24T04:03:12;12.73;;;7.13;;
63801;SDS011;49949;43.060;25.624;2023-04-24T04:05:39;19.45;;;7.28;;
63801;SDS011;49949;43.060;25.624;2023-04-24T04:08:05;15.63;;;6.47;;
63801;SDS011;49949;43.060;25.624;2023-04-24T04:10:31;31.73;;;9.02;;
63801;SDS011;49949;43.060;25.624;2023-04-24T04:12:56;48.83;;;10.77;;
63801;SDS011;49949;43.060;25.624;2023-04-24T04:15:22;32.03;;;8.70;;
63801;SDS011;49949;43.060;25.624;2023-04-24T04:17:48;34.78;;;10.07;;
63801;SDS011;49949;43.060;25.624;2023-04-24T04:20:14;17.70;;;5.20;;
63801;SDS011;49949;43.060;25.624;2023-04-24T04:22:40;19.83;;;4.50;;
63801;SDS011;49949;43.060;25.624;2023-04-24T04:25:05;17.05;;;5.13;;
63801;SDS011;49949;43.060;25.624;2023-04-24T04:27:31;24.25;;;5.53;;
63801;SDS011;49949;43.060;25.624;2023-04-24T04:29:58;14.20;;;4.28;;
63801;SDS011;49949;43.060;25.624;2023-04-24T04:32:28;15.50;;;4.63;;
63801;SDS011;49949;43.060;25.624;2023-04-24T04:34:53;19.92;;;4.10;;
63801;SDS011;49949;43.060;25.624;2023-04-24T04:37:19;6.13;;;3.70;;
63801;SDS011;49949;43.060;25.624;2023-04-24T04:39:45;18.55;;;4.00;;
63801;SDS011;49949;43.060;25.624;2023-04-24T04:42:11;10.60;;;3.42;;
63801;SDS011;49949;43.060;25.624;2023-04-24T04:44:37;10.90;;;3.58;;
63801;SDS011;49949;43.060;25.624;2023-04-24T04:47:03;14.32;;;3.88;;
63801;SDS011;49949;43.060;25.624;2023-04-24T04:49:33;23.77;;;4.18;;
63801;SDS011;49949;43.060;25.624;2023-04-24T04:51:59;17.63;;;3.95;;
63801;SDS011;49949;43.060;25.624;2023-04-24T04:54:25;16.20;;;4.88;;
63801;SDS011;49949;43.060;25.624;2023-04-24T04:56:51;12.07;;;3.65;;
63801;SDS011;49949;43.060;25.624;2023-04-24T04:59:17;26.10;;;4.68;;
63801;SDS011;49949;43.060;25.624;2023-04-24T05:01:42;16.20;;;3.88;;
63801;SDS011;49949;43.060;25.624;2023-04-24T05:04:08;17.88;;;4.05;;
63801;SDS011;49949;43.060;25.624;2023-04-24T05:06:34;23.98;;;6.22;;
63801;SDS011;49949;43.060;25.624;2023-04-24T05:09:00;199.90;;;88.57;;
63801;SDS011;49949;43.060;25.624;2023-04-24T05:11:25;61.17;;;21.33;;
63801;SDS011;49949;43.060;25.624;2023-04-24T05:13:51;69.15;;;15.38;;
63801;SDS011;49949;43.060;25.624;2023-04-24T05:16:17;69.75;;;12.48;;
63801;SDS011;49949;43.060;25.624;2023-04-24T05:18:42;94.55;;;13.93;;
63801;SDS011;49949;43.060;25.624;2023-04-24T05:21:08;178.27;;;24.75;;
63801;SDS011;49949;43.060;25.624;2023-04-24T05:23:34;120.20;;;60.42;;
63801;SDS011;49949;43.060;25.624;2023-04-24T05:26:00;112.38;;;56.63;;
63801;SDS011;49949;43.060;25.624;2023-04-24T05:28:25;82.55;;;32.63;;
63801;SDS011;49949;43.060;25.624;2023-04-24T05:30:54;76.97;;;30.23;;
63801;SDS011;49949;43.060;25.624;2023-04-24T05:33:20;81.57;;;26.08;;
63801;SDS011;49949;43.060;25.624;2023-04-24T05:35:47;58.00;;;22.08;;
63801;SDS011;49949;43.060;25.624;2023-04-24T05:38:13;58.00;;;19.77;;
63801;SDS011;49949;43.060;25.624;2023-04-24T05:40:42;45.42;;;18.55;;
63801;SDS011;49949;43.060;25.624;2023-04-24T05:43:08;45.28;;;19.42;;
63801;SDS011;49949;43.060;25.624;2023-04-24T05:45:33;46.75;;;17.33;;
63801;SDS011;49949;43.060;25.624;2023-04-24T05:48:01;45.00;;;16.70;;
63801;SDS011;49949;43.060;25.624;2023-04-24T05:50:27;36.00;;;15.73;;
63801;SDS011;49949;43.060;25.624;2023-04-24T05:52:53;42.25;;;17.80;;
63801;SDS011;49949;43.060;25.624;2023-04-24T05:55:19;46.53;;;17.50;;
63801;SDS011;49949;43.060;25.624;2023-04-24T05:57:45;81.07;;;18.70;;
63801;SDS011;49949;43.060;25.624;2023-04-24T06:00:11;79.50;;;17.70;;
63801;SDS011;49949;43.060;25.624;2023-04-24T06:02:37;35.72;;;14.48;;
63801;SDS011;49949;43.060;25.624;2023-04-24T06:05:03;44.75;;;12.05;;
63801;SDS011;49949;43.060;25.624;2023-04-24T06:07:30;35.65;;;12.63;;
63801;SDS011;49949;43.060;25.624;2023-04-24T06:09:56;27.42;;;11.75;;
63801;SDS011;49949;43.060;25.624;2023-04-24T06:12:22;24.83;;;10.95;;
63801;SDS011;49949;43.060;25.624;2023-04-24T06:14:48;27.92;;;10.40;;
63801;SDS011;49949;43.060;25.624;2023-04-24T06:17:13;20.20;;;9.65;;
63801;SDS011;49949;43.060;25.624;2023-04-24T06:19:41;20.05;;;10.05;;
63801;SDS011;49949;43.060;25.624;2023-04-24T06:22:06;17.70;;;8.90;;
63801;SDS011;49949;43.060;25.624;2023-04-24T06:24:33;20.05;;;8.77;;
63801;SDS011;49949;43.060;25.624;2023-04-24T06:26:59;18.52;;;8.80;;
63801;SDS011;49949;43.060;25.624;2023-04-24T06:29:26;25.05;;;6.93;;
63801;SDS011;49949;43.060;25.624;2023-04-24T06:31:52;20.65;;;6.38;;
63801;SDS011;49949;43.060;25.624;2023-04-24T06:34:18;21.25;;;6.45;;
63801;SDS011;49949;43.060;25.624;2023-04-24T06:36:44;28.25;;;7.80;;
63801;SDS011;49949;43.060;25.624;2023-04-24T06:39:09;8.85;;;3.95;;
63801;SDS011;49949;43.060;25.624;2023-04-24T06:41:35;11.15;;;4.05;;
63801;SDS011;49949;43.060;25.624;2023-04-24T06:44:01;8.80;;;3.85;;
63801;SDS011;49949;43.060;25.624;2023-04-24T06:46:26;6.15;;;3.22;;
63801;SDS011;49949;43.060;25.624;2023-04-24T06:48:55;12.35;;;3.20;;
63801;SDS011;49949;43.060;25.624;2023-04-24T06:51:24;3.92;;;2.95;;
63801;SDS011;49949;43.060;25.624;2023-04-24T06:53:54;12.23;;;3.22;;
63801;SDS011;49949;43.060;25.624;2023-04-24T06:56:21;8.23;;;3.22;;
63801;SDS011;49949;43.060;25.624;2023-04-24T06:58:47;13.80;;;2.67;;
63801;SDS011;49949;43.060;25.624;2023-04-24T07:01:13;10.60;;;3.08;;
63801;SDS011;49949;43.060;25.624;2023-04-24T07:03:39;4.50;;;2.70;;
63801;SDS011;49949;43.060;25.624;2023-04-24T07:06:05;12.25;;;3.15;;
63801;SDS011;49949;43.060;25.624;2023-04-24T07:08:31;16.67;;;2.83;;
63801;SDS011;49949;43.060;25.624;2023-04-24T07:10:58;9.95;;;2.50;;
63801;SDS011;49949;43.060;25.624;2023-04-24T07:13:24;16.27;;;2.75;;
63801;SDS011;49949;43.060;25.624;2023-04-24T07:15:50;6.40;;;2.90;;
63801;SDS011;49949;43.060;25.624;2023-04-24T07:18:17;8.25;;;2.30;;
63801;SDS011;49949;43.060;25.624;2023-04-24T07:20:43;6.30;;;2.17;;
63801;SDS011;49949;43.060;25.624;2023-04-24T07:23:09;5.50;;;2.55;;
63801;SDS011;49949;43.060;25.624;2023-04-24T07:25:35;8.45;;;2.42;;
63801;SDS011;49949;43.060;25.624;2023-04-24T07:28:01;14.65;;;2.88;;
63801;SDS011;49949;43.060;25.624;2023-04-24T07:30:27;5.68;;;2.35;;
63801;SDS011;49949;43.060;25.624;2023-04-24T07:32:54;3.75;;;2.20;;
63801;SDS011;49949;43.060;25.624;2023-04-24T07:35:20;11.18;;;2.30;;
63801;SDS011;49949;43.060;25.624;2023-04-24T07:37:46;9.55;;;2.58;;
63801;SDS011;49949;43.060;25.624;2023-04-24T07:40:12;9.90;;;2.30;;
63801;SDS011;49949;43.060;25.624;2023-04-24T07:42:38;8.68;;;2.28;;
63801;SDS011;49949;43.060;25.624;2023-04-24T07:45:04;7.80;;;2.28;;
63801;SDS011;49949;43.060;25.624;2023-04-24T07:47:31;13.02;;;2.20;;
63801;SDS011;49949;43.060;25.624;2023-04-24T07:49:57;12.60;;;2.80;;
63801;SDS011;49949;43.060;25.624;2023-04-24T07:52:24;9.65;;;2.90;;
63801;SDS011;49949;43.060;25.624;2023-04-24T07:54:50;6.53;;;2.60;;
63801;SDS011;49949;43.060;25.624;2023-04-24T07:57:17;8.10;;;3.78;;
63801;SDS011;49949;43.060;25.624;2023-04-24T07:59:43;6.25;;;2.85;;
63801;SDS011;49949;43.060;25.624;2023-04-24T08:02:09;5.35;;;2.13;;
63801;SDS011;49949;43.060;25.624;2023-04-24T08:04:34;43.20;;;3.95;;
63801;SDS011;49949;43.060;25.624;2023-04-24T08:07:00;8.13;;;2.33;;
63801;SDS011;49949;43.060;25.624;2023-04-24T08:09:26;4.43;;;2.20;;
63801;SDS011;49949;43.060;25.624;2023-04-24T08:11:51;9.95;;;2.72;;
63801;SDS011;49949;43.060;25.624;2023-04-24T08:14:18;3.50;;;2.30;;
63801;SDS011;49949;43.060;25.624;2023-04-24T08:16:43;4.72;;;2.75;;
63801;SDS011;49949;43.060;25.624;2023-04-24T08:19:10;5.75;;;3.20;;
63801;SDS011;49949;43.060;25.624;2023-04-24T08:21:35;3.60;;;3.00;;
63801;SDS011;49949;43.060;25.624;2023-04-24T08:24:01;7.40;;;3.53;;
63801;SDS011;49949;43.060;25.624;2023-04-24T08:26:30;6.30;;;2.60;;
63801;SDS011;49949;43.060;25.624;2023-04-24T08:28:56;5.60;;;2.65;;
63801;SDS011;49949;43.060;25.624;2023-04-24T08:31:22;16.40;;;3.17;;
63801;SDS011;49949;43.060;25.624;2023-04-24T08:33:49;9.90;;;2.70;;
63801;SDS011;49949;43.060;25.624;2023-04-24T08:36:15;5.68;;;2.80;;
63801;SDS011;49949;43.060;25.624;2023-04-24T08:38:41;36.95;;;4.93;;
63801;SDS011;49949;43.060;25.624;2023-04-24T08:41:07;4.97;;;2.95;;
63801;SDS011;49949;43.060;25.624;2023-04-24T08:43:35;273.85;;;17.30;;
63801;SDS011;49949;43.060;25.624;2023-04-24T08:46:03;138.75;;;9.77;;
63801;SDS011;49949;43.060;25.624;2023-04-24T08:48:29;18.50;;;3.40;;
63801;SDS011;49949;43.060;25.624;2023-04-24T08:50:56;10.50;;;3.53;;
63801;SDS011;49949;43.060;25.624;2023-04-24T08:53:23;21.77;;;3.00;;
63801;SDS011;49949;43.060;25.624;2023-04-24T08:55:50;13.60;;;3.13;;
63801;SDS011;49949;43.060;25.624;2023-04-24T08:58:18;18.60;;;3.95;;
63801;SDS011;49949;43.060;25.624;2023-04-24T09:00:44;18.40;;;3.38;;
63801;SDS011;49949;43.060;25.624;2023-04-24T09:03:15;30.20;;;4.20;;
63801;SDS011;49949;43.060;25.624;2023-04-24T09:05:46;50.25;;;4.88;;
63801;SDS011;49949;43.060;25.624;2023-04-24T09:08:13;12.13;;;3.28;;
63801;SDS011;49949;43.060;25.624;2023-04-24T09:10:39;5.35;;;2.60;;
63801;SDS011;49949;43.060;25.624;2023-04-24T09:13:05;17.55;;;3.38;;
63801;SDS011;49949;43.060;25.624;2023-04-24T09:15:34;15.73;;;2.75;;
63801;SDS011;49949;43.060;25.624;2023-04-24T09:18:00;11.30;;;3.40;;
63801;SDS011;49949;43.060;25.624;2023-04-24T09:20:26;3.92;;;2.85;;
63801;SDS011;49949;43.060;25.624;2023-04-24T09:22:56;19.95;;;3.03;;
63801;SDS011;49949;43.060;25.624;2023-04-24T09:25:23;13.05;;;5.88;;
63801;SDS011;49949;43.060;25.624;2023-04-24T09:27:59;25.15;;;5.20;;
63801;SDS011;49949;43.060;25.624;2023-04-24T09:30:26;9.52;;;2.67;;
63801;SDS011;49949;43.060;25.624;2023-04-24T09:33:12;9.77;;;2.60;;
63801;SDS011;49949;43.060;25.624;2023-04-24T09:35:42;21.33;;;3.03;;
63801;SDS011;49949;43.060;25.624;2023-04-24T09:38:15;21.88;;;2.88;;
63801;SDS011;49949;43.060;25.624;2023-04-24T09:40:41;9.20;;;2.22;;
63801;SDS011;49949;43.060;25.624;2023-04-24T09:43:09;4.18;;;2.30;;
63801;SDS011;49949;43.060;25.624;2023-04-24T09:45:37;6.93;;;2.88;;
63801;SDS011;49949;43.060;25.624;2023-04-24T09:48:08;9.85;;;2.30;;
63801;SDS011;49949;43.060;25.624;2023-04-24T09:50:35;9.45;;;2.42;;
63801;SDS011;49949;43.060;25.624;2023-04-24T09:53:04;4.75;;;2.00;;
63801;SDS011;49949;43.060;25.624;2023-04-24T09:55:33;5.82;;;1.70;;
63801;SDS011;49949;43.060;25.624;2023-04-24T09:58:05;7.15;;;2.47;;
63801;SDS011;49949;43.060;25.624;2023-04-24T10:00:33;7.15;;;2.20;;
63801;SDS011;49949;43.060;25.624;2023-04-24T10:05:27;16.27;;;2.97;;
63801;SDS011;49949;43.060;25.624;2023-04-24T10:08:01;6.82;;;2.13;;
63801;SDS011;49949;43.060;25.624;2023-04-24T10:10:35;9.35;;;2.70;;
63801;SDS011;49949;43.060;25.624;2023-04-24T10:13:11;5.10;;;1.90;;
63801;SDS011;49949;43.060;25.624;2023-04-24T10:15:38;4.00;;;1.90;;
63801;SDS011;49949;43.060;25.624;2023-04-24T10:18:06;5.35;;;2.33;;
63801;SDS011;49949;43.060;25.624;2023-04-24T10:20:33;6.47;;;2.30;;
63801;SDS011;49949;43.060;25.624;2023-04-24T10:23:01;5.65;;;2.20;;
63801;SDS011;49949;43.060;25.624;2023-04-24T10:25:28;4.85;;;2.10;;
63801;SDS011;49949;43.060;25.624;2023-04-24T10:27:57;4.85;;;2.20;;
63801;SDS011;49949;43.060;25.624;2023-04-24T10:30:25;5.30;;;2.38;;
63801;SDS011;49949;43.060;25.624;2023-04-24T10:32:55;8.93;;;2.40;;
63801;SDS011;49949;43.060;25.624;2023-04-24T10:35:21;6.05;;;2.10;;
63801;SDS011;49949;43.060;25.624;2023-04-24T10:37:51;7.25;;;1.92;;
63801;SDS011;49949;43.060;25.624;2023-04-24T10:40:39;7.95;;;2.13;;
63801;SDS011;49949;43.060;25.624;2023-04-24T10:43:06;8.27;;;2.53;;
63801;SDS011;49949;43.060;25.624;2023-04-24T10:45:36;12.00;;;2.50;;
63801;SDS011;49949;43.060;25.624;2023-04-24T10:48:07;5.45;;;1.92;;
63801;SDS011;49949;43.060;25.624;2023-04-24T10:50:44;6.57;;;2.20;;
63801;SDS011;49949;43.060;25.624;2023-04-24T10:53:13;3.53;;;2.20;;
63801;SDS011;49949;43.060;25.624;2023-04-24T10:55:45;6.13;;;2.38;;
63801;SDS011;49949;43.060;25.624;2023-04-24T10:58:11;4.90;;;2.55;;
63801;SDS011;49949;43.060;25.624;2023-04-24T11:00:38;8.65;;;2.28;;
63801;SDS011;49949;43.060;25.624;2023-04-24T11:03:06;5.65;;;2.30;;
63801;SDS011;49949;43.060;25.624;2023-04-24T11:06:02;2.83;;;2.45;;
63801;SDS011;49949;43.060;25.624;2023-04-24T11:08:39;4.15;;;2.42;;
63801;SDS011;49949;43.060;25.624;2023-04-24T11:11:13;7.65;;;1.98;;
63801;SDS011;49949;43.060;25.624;2023-04-24T11:16:21;7.07;;;2.10;;
63801;SDS011;49949;43.060;25.624;2023-04-24T11:19:04;5.20;;;2.17;;
63801;SDS011;49949;43.060;25.624;2023-04-24T11:21:45;5.35;;;2.22;;
63801;SDS011;49949;43.060;25.624;2023-04-24T11:26:55;5.47;;;2.47;;
63801;SDS011;49949;43.060;25.624;2023-04-24T11:29:22;5.00;;;2.28;;
63801;SDS011;49949;43.060;25.624;2023-04-24T11:31:48;5.30;;;1.80;;
63801;SDS011;49949;43.060;25.624;2023-04-24T11:34:16;5.88;;;2.80;;
63801;SDS011;49949;43.060;25.624;2023-04-24T11:36:46;7.45;;;2.17;;
63801;SDS011;49949;43.060;25.624;2023-04-24T11:39:13;16.27;;;2.20;;
63801;SDS011;49949;43.060;25.624;2023-04-24T11:41:39;5.43;;;2.25;;
63801;SDS011;49949;43.060;25.624;2023-04-24T11:44:08;5.68;;;3.30;;
63801;SDS011;49949;43.060;25.624;2023-04-24T11:46:36;2.55;;;2.33;;
63801;SDS011;49949;43.060;25.624;2023-04-24T11:49:03;3.35;;;2.30;;
63801;SDS011;49949;43.060;25.624;2023-04-24T11:51:28;4.07;;;2.03;;
63801;SDS011;49949;43.060;25.624;2023-04-24T11:53:55;9.40;;;2.40;;
63801;SDS011;49949;43.060;25.624;2023-04-24T11:56:21;4.53;;;2.13;;
63801;SDS011;49949;43.060;25.624;2023-04-24T11:58:48;7.07;;;2.22;;
63801;SDS011;49949;43.060;25.624;2023-04-24T12:01:18;4.03;;;2.10;;
63801;SDS011;49949;43.060;25.624;2023-04-24T12:03:48;4.40;;;2.00;;
63801;SDS011;49949;43.060;25.624;2023-04-24T12:06:16;11.05;;;3.40;;
63801;SDS011;49949;43.060;25.624;2023-04-24T12:08:41;11.98;;;2.42;;
63801;SDS011;49949;43.060;25.624;2023-04-24T12:11:10;4.32;;;2.38;;
63801;SDS011;49949;43.060;25.624;2023-04-24T12:13:37;4.35;;;1.88;;
63801;SDS011;49949;43.060;25.624;2023-04-24T12:16:03;4.75;;;2.17;;
63801;SDS011;49949;43.060;25.624;2023-04-24T12:18:30;5.45;;;1.90;;
63801;SDS011;49949;43.060;25.624;2023-04-24T12:21:01;3.00;;;1.90;;
63801;SDS011;49949;43.060;25.624;2023-04-24T12:23:43;3.20;;;1.80;;
63801;SDS011;49949;43.060;25.624;2023-04-24T12:26:16;2.47;;;1.73;;
63801;SDS011;49949;43.060;25.624;2023-04-24T12:28:43;9.73;;;1.98;;
63801;SDS011;49949;43.060;25.624;2023-04-24T12:31:13;7.90;;;2.30;;
63801;SDS011;49949;43.060;25.624;2023-04-24T12:33:39;4.95;;;2.03;;
63801;SDS011;49949;43.060;25.624;2023-04-24T12:36:04;4.20;;;2.33;;
63801;SDS011;49949;43.060;25.624;2023-04-24T12:38:31;4.97;;;2.20;;
63801;SDS011;49949;43.060;25.624;2023-04-24T12:41:09;2.30;;;1.85;;
63801;SDS011;49949;43.060;25.624;2023-04-24T12:43:36;2.78;;;1.80;;
63801;SDS011;49949;43.060;25.624;2023-04-24T12:46:02;16.75;;;2.78;;
63801;SDS011;49949;43.060;25.624;2023-04-24T12:48:29;29.95;;;3.40;;
63801;SDS011;49949;43.060;25.624;2023-04-24T12:50:59;15.00;;;2.67;;
63801;SDS011;49949;43.060;25.624;2023-04-24T12:55:56;6.18;;;1.70;;
63801;SDS011;49949;43.060;25.624;2023-04-24T12:58:22;55.47;;;4.00;;
63801;SDS011;49949;43.060;25.624;2023-04-24T13:00:48;2.58;;;1.83;;
63801;SDS011;49949;43.060;25.624;2023-04-24T13:03:14;7.22;;;1.83;;
63801;SDS011;49949;43.060;25.624;2023-04-24T13:05:41;24.33;;;2.83;;
63801;SDS011;49949;43.060;25.624;2023-04-24T13:08:07;15.35;;;2.38;;
63801;SDS011;49949;43.060;25.624;2023-04-24T13:10:33;9.73;;;2.38;;
63801;SDS011;49949;43.060;25.624;2023-04-24T13:12:59;2.67;;;1.45;;
63801;SDS011;49949;43.060;25.624;2023-04-24T13:15:25;8.88;;;1.70;;
63801;SDS011;49949;43.060;25.624;2023-04-24T13:17:51;1.88;;;1.55;;
63801;SDS011;49949;43.060;25.624;2023-04-24T13:20:17;3.28;;;1.75;;
63801;SDS011;49949;43.060;25.624;2023-04-24T13:22:43;3.28;;;1.70;;
63801;SDS011;49949;43.060;25.624;2023-04-24T13:25:09;6.10;;;2.03;;
63801;SDS011;49949;43.060;25.624;2023-04-24T13:27:35;8.50;;;2.03;;
63801;SDS011;49949;43.060;25.624;2023-04-24T13:30:02;4.57;;;2.05;;
63801;SDS011;49949;43.060;25.624;2023-04-24T13:32:28;4.07;;;2.17;;
63801;SDS011;49949;43.060;25.624;2023-04-24T13:34:54;111.35;;;7.88;;
63801;SDS011;49949;43.060;25.624;2023-04-24T13:37:20;8.45;;;2.92;;
63801;SDS011;49949;43.060;25.624;2023-04-24T13:39:47;21.30;;;2.95;;
63801;SDS011;49949;43.060;25.624;2023-04-24T13:42:12;18.75;;;3.05;;
63801;SDS011;49949;43.060;25.624;2023-04-24T13:44:38;15.50;;;3.53;;
63801;SDS011;49949;43.060;25.624;2023-04-24T13:47:04;10.20;;;2.40;;
63801;SDS011;49949;43.060;25.624;2023-04-24T13:49:30;6.28;;;2.20;;
63801;SDS011;49949;43.060;25.624;2023-04-24T13:51:56;4.20;;;2.42;;
63801;SDS011;49949;43.060;25.624;2023-04-24T13:54:22;5.10;;;1.80;;
63801;SDS011;49949;43.060;25.624;2023-04-24T13:56:50;3.75;;;2.20;;
63801;SDS011;49949;43.060;25.624;2023-04-24T13:59:16;4.65;;;2.28;;
63801;SDS011;49949;43.060;25.624;2023-04-24T14:01:42;5.82;;;1.92;;
63801;SDS011;49949;43.060;25.624;2023-04-24T14:04:09;5.28;;;2.45;;
63801;SDS011;49949;43.060;25.624;2023-04-24T14:06:36;23.00;;;2.97;;
63801;SDS011;49949;43.060;25.624;2023-04-24T14:09:01;49.90;;;4.70;;
63801;SDS011;49949;43.060;25.624;2023-04-24T14:11:27;7.13;;;2.38;;
63801;SDS011;49949;43.060;25.624;2023-04-24T14:13:54;4.57;;;2.42;;
63801;SDS011;49949;43.060;25.624;2023-04-24T14:16:21;2.85;;;2.25;;
63801;SDS011;49949;43.060;25.624;2023-04-24T14:18:47;2.58;;;1.90;;
63801;SDS011;49949;43.060;25.624;2023-04-24T14:21:13;4.07;;;1.85;;
63801;SDS011;49949;43.060;25.624;2023-04-24T14:23:38;6.07;;;2.30;;
63801;SDS011;49949;43.060;25.624;2023-04-24T14:26:04;6.47;;;1.95;;
63801;SDS011;49949;43.060;25.624;2023-04-24T14:28:30;8.18;;;2.55;;
63801;SDS011;49949;43.060;25.624;2023-04-24T14:30:55;85.47;;;5.05;;
63801;SDS011;49949;43.060;25.624;2023-04-24T14:33:21;2.20;;;2.00;;
63801;SDS011;49949;43.060;25.624;2023-04-24T14:35:47;3.25;;;2.10;;